sensor_id;sensor_type;location;lat;lon;timestamp;temperature;humidity
17202;DHT22;8717;53.588;10.176;2023-11-19T00:02:21;4.40;99.90
17202;DHT22;8717;53.588;10.176;2023-11-19T00:04:48;4.40;99.90
17202;DHT22;8717;53.588;10.176;2023-11-19T00:07:15;4.40;99.90
17202;DHT22;8717;53.588;10.176;2023-11-19T00:09:42;4.40;99.90
17202;DHT22;8717;53.588;10.176;2023-11-19T00:12:09;4.40;99.90
17202;DHT22;8717;53.588;10.176;2023-11-19T00:14:36;4.40;99.90
17202;DHT22;8717;53.588;10.176;2023-11-19T00:17:02;4.40;99.90
17202;DHT22;8717;53.588;10.176;2023-11-19T00:19:31;4.40;99.90
17202;DHT22;8717;53.588;10.176;2023-11-19T00:21:58;4.40;99.90
17202;DHT22;8717;53.588;10.176;2023-11-19T00:24:28;4.40;99.90
17202;DHT22;8717;53.588;10.176;2023-11-19T00:26:56;4.40;99.90
17202;DHT22;8717;53.588;10.176;2023-11-19T00:29:22;4.40;99.90
17202;DHT22;8717;53.588;10.176;2023-11-19T00:31:49;4.50;99.90
17202;DHT22;8717;53.588;10.176;2023-11-19T00:34:16;4.50;99.90
17202;DHT22;8717;53.588;10.176;2023-11-19T00:36:48;4.50;99.90
17202;DHT22;8717;53.588;10.176;2023-11-19T00:39:14;4.50;99.90
17202;DHT22;8717;53.588;10.176;2023-11-19T00:41:41;4.50;99.90
17202;DHT22;8717;53.588;10.176;2023-11-19T00:44:08;4.50;99.90
17202;DHT22;8717;53.588;10.176;2023-11-19T00:46:36;4.50;99.90
17202;DHT22;8717;53.588;10.176;2023-11-19T00:49:03;4.50;99.90
17202;DHT22;8717;53.588;10.176;2023-11-19T00:51:30;4.50;99.90
17202;DHT22;8717;53.588;10.176;2023-11-19T00:53:58;4.50;99.90
17202;DHT22;8717;53.588;10.176;2023-11-19T00:56:26;4.50;99.90
17202;DHT22;8717;53.588;10.176;2023-11-19T00:58:54;4.60;99.90
17202;DHT22;8717;53.588;10.176;2023-11-19T01:01:21;4.50;99.90
17202;DHT22;8717;53.588;10.176;2023-11-19T01:03:48;4.60;99.90
17202;DHT22;8717;53.588;10.176;2023-11-19T01:06:15;4.60;99.90
17202;DHT22;8717;53.588;10.176;2023-11-19T01:08:52;4.50;99.90
17202;DHT22;8717;53.588;10.176;2023-11-19T01:11:22;4.60;99.90
17202;DHT22;8717;53.588;10.176;2023-11-19T01:13:49;4.60;99.90
17202;DHT22;8717;53.588;10.176;2023-11-19T01:16:16;4.60;99.90
17202;DHT22;8717;53.588;10.176;2023-11-19T01:18:44;4.60;99.90
17202;DHT22;8717;53.588;10.176;2023-11-19T01:21:12;4.50;99.90
17202;DHT22;8717;53.588;10.176;2023-11-19T01:23:40;4.50;99.90
17202;DHT22;8717;53.588;10.176;2023-11-19T01:26:09;4.50;99.90
17202;DHT22;8717;53.588;10.176;2023-11-19T01:28:37;4.60;99.90
17202;DHT22;8717;53.588;10.176;2023-11-19T01:31:05;4.60;99.90
17202;DHT22;8717;53.588;10.176;2023-11-19T01:33:32;4.50;99.90
17202;DHT22;8717;53.588;10.176;2023-11-19T01:35:59;4.60;99.90
17202;DHT22;8717;53.588;10.176;2023-11-19T01:38:26;4.60;99.90
17202;DHT22;8717;53.588;10.176;2023-11-19T01:40:56;4.60;99.90
17202;DHT22;8717;53.588;10.176;2023-11-19T01:43:34;4.60;99.90
17202;DHT22;8717;53.588;10.176;2023-11-19T01:46:04;4.60;99.90
17202;DHT22;8717;53.588;10.176;2023-11-19T01:48:32;4.60;99.90
17202;DHT22;8717;53.588;10.176;2023-11-19T01:51:01;4.60;99.90
17202;DHT22;8717;53.588;10.176;2023-11-19T01:53:29;4.60;99.90
17202;DHT22;8717;53.588;10.176;2023-11-19T01:55:56;4.60;99.90
17202;DHT22;8717;53.588;10.176;2023-11-19T01:58:24;4.60;99.90
17202;DHT22;8717;53.588;10.176;2023-11-19T02:00:52;4.60;99.90
17202;DHT22;8717;53.588;10.176;2023-11-19T02:03:21;4.60;99.90
17202;DHT22;8717;53.588;10.176;2023-11-19T02:05:49;4.60;99.90
17202;DHT22;8717;53.588;10.176;2023-11-19T02:08:17;4.60;99.90
17202;DHT22;8717;53.588;10.176;2023-11-19T02:10:45;4.70;99.90
17202;DHT22;8717;53.588;10.176;2023-11-19T02:13:12;4.70;99.90
17202;DHT22;8717;53.588;10.176;2023-11-19T02:15:40;4.70;99.90
17202;DHT22;8717;53.588;10.176;2023-11-19T02:18:17;4.60;99.90
17202;DHT22;8717;53.588;10.176;2023-11-19T02:20:47;4.70;99.90
17202;DHT22;8717;53.588;10.176;2023-11-19T02:23:14;4.70;99.90
17202;DHT22;8717;53.588;10.176;2023-11-19T02:25:41;4.70;99.90
17202;DHT22;8717;53.588;10.176;2023-11-19T02:28:10;4.70;99.90
17202;DHT22;8717;53.588;10.176;2023-11-19T02:30:38;4.70;99.90
17202;DHT22;8717;53.588;10.176;2023-11-19T02:33:05;4.60;99.90
17202;DHT22;8717;53.588;10.176;2023-11-19T02:35:32;4.70;99.90
17202;DHT22;8717;53.588;10.176;2023-11-19T02:38:00;4.70;99.90
17202;DHT22;8717;53.588;10.176;2023-11-19T02:40:29;4.60;99.90
17202;DHT22;8717;53.588;10.176;2023-11-19T02:42:56;4.60;99.90
17202;DHT22;8717;53.588;10.176;2023-11-19T02:45:25;4.70;99.90
17202;DHT22;8717;53.588;10.176;2023-11-19T02:47:54;4.70;99.90
17202;DHT22;8717;53.588;10.176;2023-11-19T02:50:21;4.70;99.90
17202;DHT22;8717;53.588;10.176;2023-11-19T02:52:52;4.70;99.90
17202;DHT22;8717;53.588;10.176;2023-11-19T02:55:22;4.70;99.90
17202;DHT22;8717;53.588;10.176;2023-11-19T02:57:50;4.70;99.90
17202;DHT22;8717;53.588;10.176;2023-11-19T03:00:19;4.70;99.90
17202;DHT22;8717;53.588;10.176;2023-11-19T03:02:51;4.70;99.90
17202;DHT22;8717;53.588;10.176;2023-11-19T03:05:26;4.70;99.90
17202;DHT22;8717;53.588;10.176;2023-11-19T03:07:56;4.70;99.90
17202;DHT22;8717;53.588;10.176;2023-11-19T03:10:23;4.70;99.90
17202;DHT22;8717;53.588;10.176;2023-11-19T03:12:51;4.80;99.90
17202;DHT22;8717;53.588;10.176;2023-11-19T03:15:21;4.80;99.90
17202;DHT22;8717;53.588;10.176;2023-11-19T03:17:49;4.80;99.90
17202;DHT22;8717;53.588;10.176;2023-11-19T03:20:16;4.80;99.90
17202;DHT22;8717;53.588;10.176;2023-11-19T03:22:44;4.80;99.90
17202;DHT22;8717;53.588;10.176;2023-11-19T03:25:11;4.80;99.90
17202;DHT22;8717;53.588;10.176;2023-11-19T03:27:39;4.80;99.90
17202;DHT22;8717;53.588;10.176;2023-11-19T03:30:08;4.80;99.90
17202;DHT22;8717;53.588;10.176;2023-11-19T03:32:36;4.90;99.90
17202;DHT22;8717;53.588;10.176;2023-11-19T03:35:06;4.90;99.90
17202;DHT22;8717;53.588;10.176;2023-11-19T03:37:35;4.90;99.90
17202;DHT22;8717;53.588;10.176;2023-11-19T03:40:02;4.90;99.90
17202;DHT22;8717;53.588;10.176;2023-11-19T03:42:30;4.90;99.90
17202;DHT22;8717;53.588;10.176;2023-11-19T03:44:57;5.00;99.90
17202;DHT22;8717;53.588;10.176;2023-11-19T03:47:24;5.00;99.90
17202;DHT22;8717;53.588;10.176;2023-11-19T03:49:51;5.00;99.90
17202;DHT22;8717;53.588;10.176;2023-11-19T03:52:20;5.10;99.90
17202;DHT22;8717;53.588;10.176;2023-11-19T03:54:46;5.10;99.90
17202;DHT22;8717;53.588;10.176;2023-11-19T03:57:13;5.10;99.90
17202;DHT22;8717;53.588;10.176;2023-11-19T03:59:41;5.10;99.90
17202;DHT22;8717;53.588;10.176;2023-11-19T04:02:08;5.20;99.90
17202;DHT22;8717;53.588;10.176;2023-11-19T04:04:34;5.20;99.90
17202;DHT22;8717;53.588;10.176;2023-11-19T04:07:01;5.20;99.90
17202;DHT22;8717;53.588;10.176;2023-11-19T04:09:30;5.20;99.90
17202;DHT22;8717;53.588;10.176;2023-11-19T04:11:58;5.30;99.90
17202;DHT22;8717;53.588;10.176;2023-11-19T04:14:26;5.30;99.90
17202;DHT22;8717;53.588;10.176;2023-11-19T04:16:53;5.30;99.90
17202;DHT22;8717;53.588;10.176;2023-11-19T04:19:20;5.30;99.90
17202;DHT22;8717;53.588;10.176;2023-11-19T04:21:47;5.30;99.90
17202;DHT22;8717;53.588;10.176;2023-11-19T04:24:14;5.30;99.90
17202;DHT22;8717;53.588;10.176;2023-11-19T04:26:43;5.40;99.90
17202;DHT22;8717;53.588;10.176;2023-11-19T04:29:11;5.40;99.90
17202;DHT22;8717;53.588;10.176;2023-11-19T04:31:39;5.40;99.90
17202;DHT22;8717;53.588;10.176;2023-11-19T04:34:06;5.40;99.90
17202;DHT22;8717;53.588;10.176;2023-11-19T04:36:33;5.40;99.90
17202;DHT22;8717;53.588;10.176;2023-11-19T04:39:00;5.40;99.90
17202;DHT22;8717;53.588;10.176;2023-11-19T04:41:28;5.50;99.90
17202;DHT22;8717;53.588;10.176;2023-11-19T04:43:56;5.50;99.90
17202;DHT22;8717;53.588;10.176;2023-11-19T04:46:23;5.50;99.90
17202;DHT22;8717;53.588;10.176;2023-11-19T04:48:50;5.50;99.90
17202;DHT22;8717;53.588;10.176;2023-11-19T04:51:17;5.50;99.90
17202;DHT22;8717;53.588;10.176;2023-11-19T04:53:43;5.50;99.90
17202;DHT22;8717;53.588;10.176;2023-11-19T04:56:11;5.50;99.90
17202;DHT22;8717;53.588;10.176;2023-11-19T04:58:39;5.60;99.90
17202;DHT22;8717;53.588;10.176;2023-11-19T05:01:13;5.60;99.90
17202;DHT22;8717;53.588;10.176;2023-11-19T05:03:42;5.60;99.90
17202;DHT22;8717;53.588;10.176;2023-11-19T05:06:09;5.60;99.90
17202;DHT22;8717;53.588;10.176;2023-11-19T05:08:36;5.70;99.90
17202;DHT22;8717;53.588;10.176;2023-11-19T05:11:03;5.70;99.90
17202;DHT22;8717;53.588;10.176;2023-11-19T05:13:31;5.70;99.90
17202;DHT22;8717;53.588;10.176;2023-11-19T05:15:58;5.80;99.90
17202;DHT22;8717;53.588;10.176;2023-11-19T05:18:27;5.80;99.90
17202;DHT22;8717;53.588;10.176;2023-11-19T05:20:54;5.80;99.90
17202;DHT22;8717;53.588;10.176;2023-11-19T05:23:21;5.90;99.90
17202;DHT22;8717;53.588;10.176;2023-11-19T05:25:48;5.90;99.90
17202;DHT22;8717;53.588;10.176;2023-11-19T05:28:15;5.90;99.90
17202;DHT22;8717;53.588;10.176;2023-11-19T05:30:42;6.00;99.90
17202;DHT22;8717;53.588;10.176;2023-11-19T05:33:10;6.00;99.90
17202;DHT22;8717;53.588;10.176;2023-11-19T05:35:38;6.00;99.90
17202;DHT22;8717;53.588;10.176;2023-11-19T05:38:05;6.10;99.90
17202;DHT22;8717;53.588;10.176;2023-11-19T05:40:32;6.10;99.90
17202;DHT22;8717;53.588;10.176;2023-11-19T05:42:59;6.20;99.90
17202;DHT22;8717;53.588;10.176;2023-11-19T05:45:26;6.20;99.90
17202;DHT22;8717;53.588;10.176;2023-11-19T05:47:53;6.30;99.90
17202;DHT22;8717;53.588;10.176;2023-11-19T05:50:20;6.30;99.90
17202;DHT22;8717;53.588;10.176;2023-11-19T05:52:48;6.40;99.90
17202;DHT22;8717;53.588;10.176;2023-11-19T05:55:15;6.40;99.90
17202;DHT22;8717;53.588;10.176;2023-11-19T05:57:42;6.50;99.90
17202;DHT22;8717;53.588;10.176;2023-11-19T06:00:10;6.50;99.90
17202;DHT22;8717;53.588;10.176;2023-11-19T06:02:38;6.60;99.90
17202;DHT22;8717;53.588;10.176;2023-11-19T06:05:06;6.60;99.90
17202;DHT22;8717;53.588;10.176;2023-11-19T06:07:35;6.70;99.90
17202;DHT22;8717;53.588;10.176;2023-11-19T06:10:06;6.70;99.90
17202;DHT22;8717;53.588;10.176;2023-11-19T06:12:35;6.80;99.90
17202;DHT22;8717;53.588;10.176;2023-11-19T06:15:05;6.80;99.90
17202;DHT22;8717;53.588;10.176;2023-11-19T06:17:32;6.90;99.90
17202;DHT22;8717;53.588;10.176;2023-11-19T06:19:58;6.90;99.90
17202;DHT22;8717;53.588;10.176;2023-11-19T06:22:25;6.90;99.90
17202;DHT22;8717;53.588;10.176;2023-11-19T06:24:52;7.00;99.90
17202;DHT22;8717;53.588;10.176;2023-11-19T06:27:21;7.00;99.90
17202;DHT22;8717;53.588;10.176;2023-11-19T06:29:49;7.10;99.90
17202;DHT22;8717;53.588;10.176;2023-11-19T06:32:15;7.10;99.90
17202;DHT22;8717;53.588;10.176;2023-11-19T06:34:42;7.10;99.90
17202;DHT22;8717;53.588;10.176;2023-11-19T06:37:09;7.20;99.90
17202;DHT22;8717;53.588;10.176;2023-11-19T06:39:35;7.20;99.90
17202;DHT22;8717;53.588;10.176;2023-11-19T06:42:03;7.30;99.90
17202;DHT22;8717;53.588;10.176;2023-11-19T06:44:31;7.30;99.90
17202;DHT22;8717;53.588;10.176;2023-11-19T06:46:58;7.40;99.90
17202;DHT22;8717;53.588;10.176;2023-11-19T06:49:25;7.40;99.90
17202;DHT22;8717;53.588;10.176;2023-11-19T06:51:52;7.50;99.90
17202;DHT22;8717;53.588;10.176;2023-11-19T06:54:18;7.50;99.90
17202;DHT22;8717;53.588;10.176;2023-11-19T06:56:45;7.60;99.90
17202;DHT22;8717;53.588;10.176;2023-11-19T06:59:12;7.60;99.90
17202;DHT22;8717;53.588;10.176;2023-11-19T07:01:40;7.70;99.90
17202;DHT22;8717;53.588;10.176;2023-11-19T07:04:10;7.80;99.90
17202;DHT22;8717;53.588;10.176;2023-11-19T07:06:38;7.90;99.90
17202;DHT22;8717;53.588;10.176;2023-11-19T07:09:07;8.00;99.90
17202;DHT22;8717;53.588;10.176;2023-11-19T07:11:36;8.10;99.90
17202;DHT22;8717;53.588;10.176;2023-11-19T07:14:04;8.20;99.90
17202;DHT22;8717;53.588;10.176;2023-11-19T07:16:32;8.30;99.90
17202;DHT22;8717;53.588;10.176;2023-11-19T07:19:01;8.40;99.90
17202;DHT22;8717;53.588;10.176;2023-11-19T07:21:28;8.50;99.90
17202;DHT22;8717;53.588;10.176;2023-11-19T07:23:54;8.60;99.90
17202;DHT22;8717;53.588;10.176;2023-11-19T07:26:22;8.70;99.90
17202;DHT22;8717;53.588;10.176;2023-11-19T07:28:49;8.80;99.90
17202;DHT22;8717;53.588;10.176;2023-11-19T07:31:16;8.90;99.90
17202;DHT22;8717;53.588;10.176;2023-11-19T07:33:44;9.00;99.90
17202;DHT22;8717;53.588;10.176;2023-11-19T07:36:13;9.10;99.90
17202;DHT22;8717;53.588;10.176;2023-11-19T07:38:40;9.10;99.90
17202;DHT22;8717;53.588;10.176;2023-11-19T07:41:06;9.20;99.90
17202;DHT22;8717;53.588;10.176;2023-11-19T07:43:35;9.30;99.90
17202;DHT22;8717;53.588;10.176;2023-11-19T07:46:02;9.30;99.90
17202;DHT22;8717;53.588;10.176;2023-11-19T07:48:30;9.40;99.90
17202;DHT22;8717;53.588;10.176;2023-11-19T07:50:57;9.40;99.90
17202;DHT22;8717;53.588;10.176;2023-11-19T07:53:25;9.50;99.90
17202;DHT22;8717;53.588;10.176;2023-11-19T07:55:51;9.50;99.90
17202;DHT22;8717;53.588;10.176;2023-11-19T07:58:18;9.60;99.90
17202;DHT22;8717;53.588;10.176;2023-11-19T08:00:45;9.60;99.90
17202;DHT22;8717;53.588;10.176;2023-11-19T08:03:12;9.60;99.90
17202;DHT22;8717;53.588;10.176;2023-11-19T08:05:38;9.70;99.90
17202;DHT22;8717;53.588;10.176;2023-11-19T08:08:05;9.70;99.90
17202;DHT22;8717;53.588;10.176;2023-11-19T08:10:33;9.80;99.90
17202;DHT22;8717;53.588;10.176;2023-11-19T08:13:00;9.80;99.90
17202;DHT22;8717;53.588;10.176;2023-11-19T08:15:27;9.90;99.90
17202;DHT22;8717;53.588;10.176;2023-11-19T08:17:54;9.90;99.90
17202;DHT22;8717;53.588;10.176;2023-11-19T08:20:21;9.90;99.90
17202;DHT22;8717;53.588;10.176;2023-11-19T08:22:48;10.00;99.90
17202;DHT22;8717;53.588;10.176;2023-11-19T08:25:15;10.00;99.90
17202;DHT22;8717;53.588;10.176;2023-11-19T08:27:43;10.00;99.90
17202;DHT22;8717;53.588;10.176;2023-11-19T08:30:10;10.10;99.90
17202;DHT22;8717;53.588;10.176;2023-11-19T08:32:37;10.10;99.90
17202;DHT22;8717;53.588;10.176;2023-11-19T08:35:04;10.10;99.90
17202;DHT22;8717;53.588;10.176;2023-11-19T08:37:31;10.20;99.90
17202;DHT22;8717;53.588;10.176;2023-11-19T08:39:57;10.20;99.90
17202;DHT22;8717;53.588;10.176;2023-11-19T08:42:24;10.20;99.90
17202;DHT22;8717;53.588;10.176;2023-11-19T08:44:52;10.20;99.90
17202;DHT22;8717;53.588;10.176;2023-11-19T08:47:20;10.20;99.90
17202;DHT22;8717;53.588;10.176;2023-11-19T08:49:48;10.30;99.90
17202;DHT22;8717;53.588;10.176;2023-11-19T08:52:17;10.30;99.90
17202;DHT22;8717;53.588;10.176;2023-11-19T08:54:44;10.30;99.90
17202;DHT22;8717;53.588;10.176;2023-11-19T08:57:10;10.30;99.90
17202;DHT22;8717;53.588;10.176;2023-11-19T08:59:37;10.40;99.90
17202;DHT22;8717;53.588;10.176;2023-11-19T09:02:05;10.40;99.90
17202;DHT22;8717;53.588;10.176;2023-11-19T09:04:32;10.40;99.90
17202;DHT22;8717;53.588;10.176;2023-11-19T09:06:59;10.40;99.90
17202;DHT22;8717;53.588;10.176;2023-11-19T09:09:26;10.50;99.90
17202;DHT22;8717;53.588;10.176;2023-11-19T09:11:52;10.50;99.90
17202;DHT22;8717;53.588;10.176;2023-11-19T09:14:20;10.50;99.90
17202;DHT22;8717;53.588;10.176;2023-11-19T09:16:49;10.50;99.90
17202;DHT22;8717;53.588;10.176;2023-11-19T09:19:17;10.60;99.90
17202;DHT22;8717;53.588;10.176;2023-11-19T09:21:44;10.60;99.90
17202;DHT22;8717;53.588;10.176;2023-11-19T09:24:11;10.60;99.90
17202;DHT22;8717;53.588;10.176;2023-11-19T09:26:38;10.60;99.90
17202;DHT22;8717;53.588;10.176;2023-11-19T09:29:07;10.60;99.90
17202;DHT22;8717;53.588;10.176;2023-11-19T09:31:34;10.60;99.90
17202;DHT22;8717;53.588;10.176;2023-11-19T09:34:01;10.70;99.90
17202;DHT22;8717;53.588;10.176;2023-11-19T09:36:29;10.70;99.90
17202;DHT22;8717;53.588;10.176;2023-11-19T09:38:55;10.70;99.90
17202;DHT22;8717;53.588;10.176;2023-11-19T09:41:23;10.80;99.90
17202;DHT22;8717;53.588;10.176;2023-11-19T09:43:52;10.80;99.90
17202;DHT22;8717;53.588;10.176;2023-11-19T09:46:19;10.90;99.90
17202;DHT22;8717;53.588;10.176;2023-11-19T09:48:46;10.90;99.90
17202;DHT22;8717;53.588;10.176;2023-11-19T09:51:14;11.00;99.90
17202;DHT22;8717;53.588;10.176;2023-11-19T09:53:42;11.00;99.90
17202;DHT22;8717;53.588;10.176;2023-11-19T09:56:08;11.10;99.90
17202;DHT22;8717;53.588;10.176;2023-11-19T09:58:35;11.10;99.90
17202;DHT22;8717;53.588;10.176;2023-11-19T10:01:02;11.20;99.90
17202;DHT22;8717;53.588;10.176;2023-11-19T10:03:33;11.30;99.90
17202;DHT22;8717;53.588;10.176;2023-11-19T10:06:03;11.30;99.90
17202;DHT22;8717;53.588;10.176;2023-11-19T10:08:30;11.30;99.90
17202;DHT22;8717;53.588;10.176;2023-11-19T10:10:58;11.40;99.90
17202;DHT22;8717;53.588;10.176;2023-11-19T10:13:26;11.50;99.90
17202;DHT22;8717;53.588;10.176;2023-11-19T10:15:53;11.50;99.90
17202;DHT22;8717;53.588;10.176;2023-11-19T10:18:24;11.60;99.90
17202;DHT22;8717;53.588;10.176;2023-11-19T10:20:51;11.60;99.90
17202;DHT22;8717;53.588;10.176;2023-11-19T10:23:18;11.70;99.90
17202;DHT22;8717;53.588;10.176;2023-11-19T10:25:45;11.70;99.90
17202;DHT22;8717;53.588;10.176;2023-11-19T10:28:15;11.80;99.90
17202;DHT22;8717;53.588;10.176;2023-11-19T10:30:41;11.80;99.90
17202;DHT22;8717;53.588;10.176;2023-11-19T10:33:09;11.80;99.90
17202;DHT22;8717;53.588;10.176;2023-11-19T10:35:51;11.70;99.90
17202;DHT22;8717;53.588;10.176;2023-11-19T10:38:18;11.60;99.90
17202;DHT22;8717;53.588;10.176;2023-11-19T10:40:45;11.60;99.90
17202;DHT22;8717;53.588;10.176;2023-11-19T10:43:13;11.50;99.90
17202;DHT22;8717;53.588;10.176;2023-11-19T10:45:40;11.50;99.90
17202;DHT22;8717;53.588;10.176;2023-11-19T10:48:07;11.40;99.90
17202;DHT22;8717;53.588;10.176;2023-11-19T10:50:34;11.40;99.90
17202;DHT22;8717;53.588;10.176;2023-11-19T10:53:02;11.30;99.90
17202;DHT22;8717;53.588;10.176;2023-11-19T10:55:30;11.30;99.90
17202;DHT22;8717;53.588;10.176;2023-11-19T10:57:59;11.30;99.90
17202;DHT22;8717;53.588;10.176;2023-11-19T11:00:29;11.20;99.90
17202;DHT22;8717;53.588;10.176;2023-11-19T11:03:00;11.20;99.90
17202;DHT22;8717;53.588;10.176;2023-11-19T11:05:30;11.20;99.90
17202;DHT22;8717;53.588;10.176;2023-11-19T11:08:00;11.10;99.90
17202;DHT22;8717;53.588;10.176;2023-11-19T11:10:28;11.10;99.90
17202;DHT22;8717;53.588;10.176;2023-11-19T11:12:59;11.10;99.90
17202;DHT22;8717;53.588;10.176;2023-11-19T11:15:30;11.10;99.90
17202;DHT22;8717;53.588;10.176;2023-11-19T11:18:00;11.10;99.90
17202;DHT22;8717;53.588;10.176;2023-11-19T11:20:28;11.10;99.90
17202;DHT22;8717;53.588;10.176;2023-11-19T11:23:09;11.10;99.90
17202;DHT22;8717;53.588;10.176;2023-11-19T11:25:44;11.10;99.90
17202;DHT22;8717;53.588;10.176;2023-11-19T11:28:21;11.20;99.90
17202;DHT22;8717;53.588;10.176;2023-11-19T11:31:15;11.20;99.90
17202;DHT22;8717;53.588;10.176;2023-11-19T11:34:02;11.10;99.90
17202;DHT22;8717;53.588;10.176;2023-11-19T11:36:36;11.20;99.90
17202;DHT22;8717;53.588;10.176;2023-11-19T11:39:08;11.20;99.90
17202;DHT22;8717;53.588;10.176;2023-11-19T11:41:35;11.20;99.90
17202;DHT22;8717;53.588;10.176;2023-11-19T11:44:01;11.20;99.90
17202;DHT22;8717;53.588;10.176;2023-11-19T11:46:54;11.20;99.90
17202;DHT22;8717;53.588;10.176;2023-11-19T11:49:25;11.20;99.90
17202;DHT22;8717;53.588;10.176;2023-11-19T11:52:00;11.20;99.90
17202;DHT22;8717;53.588;10.176;2023-11-19T11:54:27;11.10;99.90
17202;DHT22;8717;53.588;10.176;2023-11-19T11:57:16;11.10;99.90
17202;DHT22;8717;53.588;10.176;2023-11-19T11:59:46;11.10;99.90
17202;DHT22;8717;53.588;10.176;2023-11-19T12:02:16;11.10;99.90
17202;DHT22;8717;53.588;10.176;2023-11-19T12:04:46;11.10;99.90
17202;DHT22;8717;53.588;10.176;2023-11-19T12:07:14;11.10;99.90
17202;DHT22;8717;53.588;10.176;2023-11-19T12:09:42;11.10;99.90
17202;DHT22;8717;53.588;10.176;2023-11-19T12:12:18;11.10;99.90
17202;DHT22;8717;53.588;10.176;2023-11-19T12:15:10;11.10;99.90
17202;DHT22;8717;53.588;10.176;2023-11-19T12:17:46;11.00;99.90
17202;DHT22;8717;53.588;10.176;2023-11-19T12:20:16;11.10;99.90
17202;DHT22;8717;53.588;10.176;2023-11-19T12:22:44;11.10;99.90
17202;DHT22;8717;53.588;10.176;2023-11-19T12:25:12;11.00;99.90
17202;DHT22;8717;53.588;10.176;2023-11-19T12:27:40;11.00;99.90
17202;DHT22;8717;53.588;10.176;2023-11-19T12:30:08;11.10;99.90
17202;DHT22;8717;53.588;10.176;2023-11-19T12:32:40;11.10;99.90
17202;DHT22;8717;53.588;10.176;2023-11-19T12:35:07;11.10;99.90
17202;DHT22;8717;53.588;10.176;2023-11-19T12:37:44;11.10;99.90
17202;DHT22;8717;53.588;10.176;2023-11-19T12:40:13;11.10;99.90
17202;DHT22;8717;53.588;10.176;2023-11-19T12:42:40;11.10;99.90
17202;DHT22;8717;53.588;10.176;2023-11-19T12:45:07;11.10;99.90
17202;DHT22;8717;53.588;10.176;2023-11-19T12:47:36;11.10;99.90
17202;DHT22;8717;53.588;10.176;2023-11-19T12:50:05;11.20;99.90
17202;DHT22;8717;53.588;10.176;2023-11-19T12:52:33;11.20;99.90
17202;DHT22;8717;53.588;10.176;2023-11-19T12:55:00;11.20;99.90
17202;DHT22;8717;53.588;10.176;2023-11-19T12:57:38;11.20;99.90
17202;DHT22;8717;53.588;10.176;2023-11-19T13:00:07;11.20;99.90
17202;DHT22;8717;53.588;10.176;2023-11-19T13:02:46;11.20;99.90
17202;DHT22;8717;53.588;10.176;2023-11-19T13:05:23;11.10;99.90
17202;DHT22;8717;53.588;10.176;2023-11-19T13:07:49;11.10;99.90
17202;DHT22;8717;53.588;10.176;2023-11-19T13:10:16;11.10;99.90
17202;DHT22;8717;53.588;10.176;2023-11-19T13:12:43;11.10;99.90
17202;DHT22;8717;53.588;10.176;2023-11-19T13:15:23;11.20;99.90
17202;DHT22;8717;53.588;10.176;2023-11-19T13:17:50;11.10;99.90
17202;DHT22;8717;53.588;10.176;2023-11-19T13:20:17;11.10;99.90
17202;DHT22;8717;53.588;10.176;2023-11-19T13:22:55;11.20;99.90
17202;DHT22;8717;53.588;10.176;2023-11-19T13:25:22;11.10;99.90
17202;DHT22;8717;53.588;10.176;2023-11-19T13:27:49;11.20;99.90
17202;DHT22;8717;53.588;10.176;2023-11-19T13:30:16;11.20;99.90
17202;DHT22;8717;53.588;10.176;2023-11-19T13:32:43;11.10;99.90
17202;DHT22;8717;53.588;10.176;2023-11-19T13:35:11;11.10;99.90
17202;DHT22;8717;53.588;10.176;2023-11-19T13:37:38;11.10;99.90
17202;DHT22;8717;53.588;10.176;2023-11-19T13:40:07;11.10;99.90
17202;DHT22;8717;53.588;10.176;2023-11-19T13:42:36;11.20;99.90
17202;DHT22;8717;53.588;10.176;2023-11-19T13:45:08;11.10;99.90
17202;DHT22;8717;53.588;10.176;2023-11-19T13:47:36;11.10;99.90
17202;DHT22;8717;53.588;10.176;2023-11-19T13:50:03;11.10;99.90
17202;DHT22;8717;53.588;10.176;2023-11-19T13:52:31;11.10;99.90
17202;DHT22;8717;53.588;10.176;2023-11-19T13:54:58;11.10;99.90
17202;DHT22;8717;53.588;10.176;2023-11-19T13:57:30;11.00;99.90
17202;DHT22;8717;53.588;10.176;2023-11-19T13:59:57;11.00;99.90
17202;DHT22;8717;53.588;10.176;2023-11-19T14:02:23;11.00;99.90
17202;DHT22;8717;53.588;10.176;2023-11-19T14:04:50;11.00;99.90
17202;DHT22;8717;53.588;10.176;2023-11-19T14:07:17;11.00;99.90
17202;DHT22;8717;53.588;10.176;2023-11-19T14:09:44;10.90;99.90
17202;DHT22;8717;53.588;10.176;2023-11-19T14:12:11;10.90;99.90
17202;DHT22;8717;53.588;10.176;2023-11-19T14:14:39;10.90;99.90
17202;DHT22;8717;53.588;10.176;2023-11-19T14:17:07;10.90;99.90
17202;DHT22;8717;53.588;10.176;2023-11-19T14:19:34;10.90;99.90
17202;DHT22;8717;53.588;10.176;2023-11-19T14:22:01;10.90;99.90
17202;DHT22;8717;53.588;10.176;2023-11-19T14:24:28;10.90;99.90
17202;DHT22;8717;53.588;10.176;2023-11-19T14:26:54;10.90;99.90
17202;DHT22;8717;53.588;10.176;2023-11-19T14:29:24;11.00;99.90
17202;DHT22;8717;53.588;10.176;2023-11-19T14:31:53;10.90;99.90
17202;DHT22;8717;53.588;10.176;2023-11-19T14:34:19;10.90;99.90
17202;DHT22;8717;53.588;10.176;2023-11-19T14:36:46;10.90;99.90
17202;DHT22;8717;53.588;10.176;2023-11-19T14:39:14;10.90;99.90
17202;DHT22;8717;53.588;10.176;2023-11-19T14:41:42;10.90;99.90
17202;DHT22;8717;53.588;10.176;2023-11-19T14:44:09;10.90;99.90
17202;DHT22;8717;53.588;10.176;2023-11-19T14:46:36;10.80;99.90
17202;DHT22;8717;53.588;10.176;2023-11-19T14:49:04;10.70;99.90
17202;DHT22;8717;53.588;10.176;2023-11-19T14:51:31;10.70;99.90
17202;DHT22;8717;53.588;10.176;2023-11-19T14:53:58;10.60;99.90
17202;DHT22;8717;53.588;10.176;2023-11-19T14:56:24;10.60;99.90
17202;DHT22;8717;53.588;10.176;2023-11-19T14:58:51;10.50;99.90
17202;DHT22;8717;53.588;10.176;2023-11-19T15:01:18;10.50;99.90
17202;DHT22;8717;53.588;10.176;2023-11-19T15:03:45;10.50;99.90
17202;DHT22;8717;53.588;10.176;2023-11-19T15:06:13;10.40;99.90
17202;DHT22;8717;53.588;10.176;2023-11-19T15:08:40;10.40;99.90
17202;DHT22;8717;53.588;10.176;2023-11-19T15:11:07;10.40;99.90
17202;DHT22;8717;53.588;10.176;2023-11-19T15:13:34;10.30;99.90
17202;DHT22;8717;53.588;10.176;2023-11-19T15:16:03;10.30;99.90
17202;DHT22;8717;53.588;10.176;2023-11-19T15:18:31;10.20;99.90
17202;DHT22;8717;53.588;10.176;2023-11-19T15:20:57;10.00;99.90
17202;DHT22;8717;53.588;10.176;2023-11-19T15:23:25;10.00;99.90
17202;DHT22;8717;53.588;10.176;2023-11-19T15:25:54;9.90;99.90
17202;DHT22;8717;53.588;10.176;2023-11-19T15:28:21;9.80;99.90
17202;DHT22;8717;53.588;10.176;2023-11-19T15:30:48;9.70;99.90
17202;DHT22;8717;53.588;10.176;2023-11-19T15:33:15;9.60;99.90
17202;DHT22;8717;53.588;10.176;2023-11-19T15:35:42;9.50;99.90
17202;DHT22;8717;53.588;10.176;2023-11-19T15:38:09;9.40;99.90
17202;DHT22;8717;53.588;10.176;2023-11-19T15:40:37;9.40;99.90
17202;DHT22;8717;53.588;10.176;2023-11-19T15:43:04;9.30;99.90
17202;DHT22;8717;53.588;10.176;2023-11-19T15:45:32;9.20;99.90
17202;DHT22;8717;53.588;10.176;2023-11-19T15:48:03;9.20;99.90